Time;durP1;ratioP1;P1;durP2;ratioP2;P2;SDS_P1;SDS_P2;PMS_P1;PMS_P2;Temp;Humidity;BMP_temperature;BMP_pressure;BME280_temperature;BME280_humidity;BME280_pressure;Samples;Min_cycle;Max_cycle;Signal;HPM_P1;HPM_P2
2024/02/26 00:01:17;;;;;;;;;;;;;;;-3.82;100.00;101638.88;109422;1251;58603;-54
2024/02/26 00:03:47;;;;;;;;;;;;;;;-3.83;100.00;101639.96;109394;1251;74500;-55
2024/02/26 00:06:14;;;;;;;;;;;;;;;-3.84;100.00;101640.48;109369;1252;66906;-55
2024/02/26 00:08:42;;;;;;;;;;;;;;;-3.86;100.00;101633.77;109448;1253;71296;-53
2024/02/26 00:11:09;;;;;;;;;;;;;;;-3.88;100.00;101631.64;109351;1253;60455;-53
2024/02/26 00:13:37;;;;;;;;;;;;;;;-3.90;100.00;101631.87;109410;1253;60446;-53
2024/02/26 00:16:06;;;;;;;;;;;;;;;-3.92;100.00;101630.89;109416;1252;73987;-53
2024/02/26 00:18:33;;;;;;;;;;;;;;;-3.93;100.00;101621.62;109397;1251;66971;-52
2024/02/26 00:21:02;;;;;;;;;;;;;;;-3.95;100.00;101622.38;109396;1252;71730;-52
2024/02/26 00:23:29;;;;;;;;;;;;;;;-3.99;100.00;101620.98;109387;1252;60547;-52
2024/02/26 00:25:57;;;;;;;;;;;;;;;-4.03;100.00;101619.77;109370;1252;58774;-52
2024/02/26 00:28:24;;;;;;;;;;;;;;;-4.06;100.00;101614.63;109456;1251;73962;-54
2024/02/26 00:30:55;;;;;;;;;;;;;;;-4.09;100.00;101612.72;109411;1251;65668;-53
2024/02/26 00:33:23;;;;;;;;;;;;;;;-4.13;100.00;101609.45;109381;1253;72922;-55
2024/02/26 00:35:51;;;;;;;;;;;;;;;-4.17;100.00;101606.70;109392;1251;61753;-52
2024/02/26 00:38:18;;;;;;;;;;;;;;;-4.19;100.00;101603.39;109363;1252;58399;-55
2024/02/26 00:40:46;;;;;;;;;;;;;;;-4.23;100.00;101600.84;109389;1253;74697;-55
2024/02/26 00:43:14;;;;;;;;;;;;;;;-4.27;100.00;101598.23;109449;1252;65876;-54
2024/02/26 00:45:41;;;;;;;;;;;;;;;-4.31;100.00;101592.42;109370;1252;72757;-52
2024/02/26 00:48:09;;;;;;;;;;;;;;;-4.34;100.00;101592.21;109420;1251;60055;-55
2024/02/26 00:50:36;;;;;;;;;;;;;;;-4.37;100.00;101589.80;109397;1253;60754;-55
2024/02/26 00:53:04;;;;;;;;;;;;;;;-4.40;100.00;101586.31;109371;1252;73923;-52
2024/02/26 00:55:31;;;;;;;;;;;;;;;-4.42;100.00;101587.40;109407;1251;66947;-54
2024/02/26 00:57:59;;;;;;;;;;;;;;;-4.44;100.00;101581.55;109388;1252;71441;-52
2024/02/26 01:00:26;;;;;;;;;;;;;;;-4.46;100.00;101578.05;109335;1253;58075;-57
2024/02/26 01:02:54;;;;;;;;;;;;;;;-4.48;100.00;101571.15;109412;1252;60303;-55
2024/02/26 01:05:21;;;;;;;;;;;;;;;-4.49;100.00;101566.13;109354;1253;72671;-54
2024/02/26 01:07:49;;;;;;;;;;;;;;;-4.51;100.00;101566.52;109420;1251;65853;-54
2024/02/26 01:10:17;;;;;;;;;;;;;;;-4.51;100.00;101564.67;109384;1251;72774;-55
2024/02/26 01:12:44;;;;;;;;;;;;;;;-4.52;100.00;101565.88;109467;1251;59227;-54
2024/02/26 01:15:12;;;;;;;;;;;;;;;-4.53;100.00;101562.19;109483;1251;59959;-52
2024/02/26 01:17:39;;;;;;;;;;;;;;;-4.53;100.00;101564.06;109453;1251;73944;-52
2024/02/26 01:20:08;;;;;;;;;;;;;;;-4.53;100.00;101566.10;109486;1251;67440;-61
2024/02/26 01:22:36;;;;;;;;;;;;;;;-4.53;100.00;101565.58;109447;1251;71479;-54
2024/02/26 01:25:04;;;;;;;;;;;;;;;-4.54;100.00;101569.16;109473;1251;58405;-54
2024/02/26 01:27:31;;;;;;;;;;;;;;;-4.55;100.00;101564.27;109442;1251;59796;-54
2024/02/26 01:29:59;;;;;;;;;;;;;;;-4.55;100.00;101567.67;109479;1251;73928;-55
2024/02/26 01:32:26;;;;;;;;;;;;;;;-4.55;100.00;101566.33;109397;1251;66818;-55
2024/02/26 01:34:54;;;;;;;;;;;;;;;-4.56;100.00;101560.42;109459;1251;72844;-54
2024/02/26 01:37:21;;;;;;;;;;;;;;;-4.56;100.00;101557.37;109502;1252;60207;-54
2024/02/26 01:39:49;;;;;;;;;;;;;;;-4.57;100.00;101553.16;109354;1251;59954;-53
2024/02/26 01:42:16;;;;;;;;;;;;;;;-4.56;100.00;101551.95;109432;1251;72597;-60
2024/02/26 01:44:44;;;;;;;;;;;;;;;-4.57;100.00;101551.66;109457;1251;66111;-53
2024/02/26 01:47:11;;;;;;;;;;;;;;;-4.59;100.00;101552.39;109451;1251;72698;-52
2024/02/26 01:49:39;;;;;;;;;;;;;;;-4.59;100.00;101546.44;109470;1251;58183;-52
2024/02/26 01:52:08;;;;;;;;;;;;;;;-4.59;100.00;101548.49;109490;1251;59961;-55
2024/02/26 01:54:36;;;;;;;;;;;;;;;-4.58;100.00;101546.23;109350;1251;73926;-53
2024/02/26 01:57:04;;;;;;;;;;;;;;;-4.59;100.00;101543.89;109470;1251;65639;-52
2024/02/26 01:59:31;;;;;;;;;;;;;;;-4.59;100.00;101548.98;109453;1251;72763;-54
2024/02/26 02:01:59;;;;;;;;;;;;;;;-4.60;100.00;101545.80;109508;1251;58226;-54
2024/02/26 02:04:26;;;;;;;;;;;;;;;-4.60;100.00;101544.28;109497;1252;59887;-52
2024/02/26 02:06:54;;;;;;;;;;;;;;;-4.60;100.00;101543.93;109387;1251;73845;-59
2024/02/26 02:09:22;;;;;;;;;;;;;;;-4.59;100.00;101543.23;109337;1251;66922;-55
2024/02/26 02:11:50;;;;;;;;;;;;;;;-4.58;100.00;101544.55;109487;1251;72740;-56
2024/02/26 02:14:18;;;;;;;;;;;;;;;-4.57;100.00;101542.33;109350;1251;61786;-53
2024/02/26 02:16:45;;;;;;;;;;;;;;;-4.57;100.00;101546.23;109483;1251;59864;-55
2024/02/26 02:19:13;;;;;;;;;;;;;;;-4.57;100.00;101541.48;109495;1251;72681;-51
2024/02/26 02:21:41;;;;;;;;;;;;;;;-4.58;100.00;101544.20;109394;1251;66176;-52
2024/02/26 02:24:08;;;;;;;;;;;;;;;-4.59;100.00;101538.65;109494;1252;71509;-51
2024/02/26 02:26:36;;;;;;;;;;;;;;;-4.61;100.00;101534.98;109488;1251;60398;-54
2024/02/26 02:29:04;;;;;;;;;;;;;;;-4.63;100.00;101540.66;109382;1253;60001;-55
2024/02/26 02:31:31;;;;;;;;;;;;;;;-4.65;100.00;101537.98;109482;1251;73866;-53
2024/02/26 02:33:59;;;;;;;;;;;;;;;-4.66;100.00;101538.54;109494;1251;65691;-52
2024/02/26 02:36:26;;;;;;;;;;;;;;;-4.66;100.00;101538.36;109460;1252;72739;-52
2024/02/26 02:38:54;;;;;;;;;;;;;;;-4.65;100.00;101538.66;109410;1251;60484;-51
2024/02/26 02:41:22;;;;;;;;;;;;;;;-4.64;100.00;101535.08;109453;1251;59870;-51
2024/02/26 02:43:49;;;;;;;;;;;;;;;-4.65;100.00;101533.42;109467;1251;73011;-52
2024/02/26 02:46:17;;;;;;;;;;;;;;;-4.62;100.00;101539.59;109484;1251;66050;-52
2024/02/26 02:48:44;;;;;;;;;;;;;;;-4.60;100.00;101532.39;109410;1251;72663;-52
2024/02/26 02:51:12;;;;;;;;;;;;;;;-4.59;100.00;101532.36;109475;1252;60515;-54
2024/02/26 02:53:39;;;;;;;;;;;;;;;-4.53;100.00;101532.31;109496;1252;58052;-54
2024/02/26 02:56:07;;;;;;;;;;;;;;;-4.47;100.00;101532.09;109495;1252;73976;-55
2024/02/26 02:58:35;;;;;;;;;;;;;;;-4.45;100.00;101534.77;109476;1252;65128;-60
2024/02/26 03:01:03;;;;;;;;;;;;;;;-4.48;100.00;101532.65;109469;1252;71346;-52
2024/02/26 03:03:30;;;;;;;;;;;;;;;-4.52;100.00;101532.80;109485;1251;60447;-51
2024/02/26 03:05:58;;;;;;;;;;;;;;;-4.57;100.00;101534.84;109512;1253;59832;-52
2024/02/26 03:08:25;;;;;;;;;;;;;;;-4.60;100.00;101535.12;109473;1252;72659;-53
2024/02/26 03:10:53;;;;;;;;;;;;;;;-4.60;100.00;101536.13;109419;1252;65846;-56
2024/02/26 03:13:21;;;;;;;;;;;;;;;-4.60;100.00;101530.05;109397;1252;72725;-51
2024/02/26 03:15:48;;;;;;;;;;;;;;;-4.62;100.00;101535.36;109398;1251;60464;-51
2024/02/26 03:18:16;;;;;;;;;;;;;;;-4.63;100.00;101535.40;109422;1252;58591;-53
2024/02/26 03:20:44;;;;;;;;;;;;;;;-4.65;100.00;101533.27;109423;1251;72316;-51
2024/02/26 03:23:15;;;;;;;;;;;;;;;-4.66;100.00;101531.42;109506;1251;66917;-51
2024/02/26 03:25:42;;;;;;;;;;;;;;;-4.67;100.00;101528.73;109474;1251;71427;-51
2024/02/26 03:28:10;;;;;;;;;;;;;;;-4.70;100.00;101527.82;109446;1251;59817;-51
2024/02/26 03:30:37;;;;;;;;;;;;;;;-4.71;100.00;101532.64;109418;1251;59735;-55
2024/02/26 03:33:05;;;;;;;;;;;;;;;-4.72;100.00;101534.67;109477;1251;72597;-51
2024/02/26 03:35:33;;;;;;;;;;;;;;;-4.72;100.00;101533.14;109467;1251;66963;-52
2024/02/26 03:38:00;;;;;;;;;;;;;;;-4.72;100.00;101540.95;109424;1251;71381;-51
2024/02/26 03:40:28;;;;;;;;;;;;;;;-4.70;100.00;101539.38;109447;1251;60733;-52
2024/02/26 03:42:57;;;;;;;;;;;;;;;-4.68;100.00;101539.46;109399;1251;58141;-51
2024/02/26 03:45:25;;;;;;;;;;;;;;;-4.68;100.00;101547.96;109465;1251;73892;-52
2024/02/26 03:47:53;;;;;;;;;;;;;;;-4.69;100.00;101548.69;109482;1251;67058;-53
2024/02/26 03:50:21;;;;;;;;;;;;;;;-4.69;100.00;101547.98;109466;1251;71454;-52
2024/02/26 03:52:48;;;;;;;;;;;;;;;-4.71;100.00;101545.16;109412;1251;60493;-52
2024/02/26 03:55:20;;;;;;;;;;;;;;;-4.73;100.00;101548.97;109462;1251;59923;-52
2024/02/26 03:57:48;;;;;;;;;;;;;;;-4.75;100.00;101553.27;109492;1251;71804;-52
2024/02/26 04:00:15;;;;;;;;;;;;;;;-4.77;100.00;101552.33;109464;1251;66201;-52
2024/02/26 04:02:43;;;;;;;;;;;;;;;-4.79;100.00;101557.98;109471;1252;72542;-57
2024/02/26 04:05:11;;;;;;;;;;;;;;;-4.79;100.00;101557.13;109435;1251;60117;-53
2024/02/26 04:07:39;;;;;;;;;;;;;;;-4.81;100.00;101562.80;109482;1251;58522;-52
2024/02/26 04:10:10;;;;;;;;;;;;;;;-4.83;100.00;101558.98;109463;1251;73922;-52
2024/02/26 04:12:43;;;;;;;;;;;;;;;-4.86;100.00;101559.23;109450;1251;66167;-52
2024/02/26 04:15:11;;;;;;;;;;;;;;;-4.88;100.00;101562.55;109474;1251;71975;-52
2024/02/26 04:17:39;;;;;;;;;;;;;;;-4.87;100.00;101566.75;109431;1251;60055;-52
2024/02/26 04:20:07;;;;;;;;;;;;;;;-4.87;100.00;101569.11;109470;1251;58745;-51
2024/02/26 04:22:35;;;;;;;;;;;;;;;-4.87;100.00;101575.05;109478;1251;73968;-52
2024/02/26 04:25:02;;;;;;;;;;;;;;;-4.81;100.00;101572.14;109432;1251;66856;-52
2024/02/26 04:27:30;;;;;;;;;;;;;;;-4.69;100.00;101573.58;109466;1251;71317;-52
2024/02/26 04:29:57;;;;;;;;;;;;;;;-4.55;100.00;101572.61;109451;1251;58641;-52
2024/02/26 04:32:25;;;;;;;;;;;;;;;-4.45;100.00;101571.74;109470;1251;59921;-52
2024/02/26 04:34:53;;;;;;;;;;;;;;;-4.36;100.00;101573.61;109440;1251;72656;-54
2024/02/26 04:37:20;;;;;;;;;;;;;;;-4.31;100.00;101569.04;109426;1251;65730;-52
2024/02/26 04:39:48;;;;;;;;;;;;;;;-4.23;100.00;101564.98;109451;1251;72472;-53
2024/02/26 04:42:17;;;;;;;;;;;;;;;-4.08;100.00;101567.86;109532;1251;58464;-53
2024/02/26 04:44:45;;;;;;;;;;;;;;;-3.97;100.00;101564.21;109477;1252;59914;-52
2024/02/26 04:47:13;;;;;;;;;;;;;;;-3.93;100.00;101564.58;109410;1251;73850;-54
2024/02/26 04:49:41;;;;;;;;;;;;;;;-3.93;100.00;101564.05;109468;1251;67095;-54
2024/02/26 04:52:09;;;;;;;;;;;;;;;-3.89;100.00;101564.59;109508;1252;72741;-53
2024/02/26 04:54:36;;;;;;;;;;;;;;;-3.84;100.00;101565.92;109423;1251;59313;-52
2024/02/26 04:57:04;;;;;;;;;;;;;;;-3.81;100.00;101560.55;109398;1253;58687;-57
2024/02/26 04:59:32;;;;;;;;;;;;;;;-3.77;100.00;101555.11;109439;1253;73914;-53
2024/02/26 05:01:59;;;;;;;;;;;;;;;-3.71;100.00;101558.80;109500;1251;67116;-53
2024/02/26 05:04:27;;;;;;;;;;;;;;;-3.65;100.00;101562.30;109477;1252;71447;-53
2024/02/26 05:06:54;;;;;;;;;;;;;;;-3.58;100.00;101564.41;109477;1253;58833;-59
2024/02/26 05:09:22;;;;;;;;;;;;;;;-3.54;100.00;101564.09;109475;1251;58562;-52
2024/02/26 05:11:49;;;;;;;;;;;;;;;-3.48;100.00;101556.37;109477;1251;73925;-52
2024/02/26 05:14:17;;;;;;;;;;;;;;;-3.40;100.00;101558.27;109436;1251;66922;-53
2024/02/26 05:16:44;;;;;;;;;;;;;;;-3.35;100.00;101559.60;109478;1252;72696;-54
2024/02/26 05:19:12;;;;;;;;;;;;;;;-3.30;100.00;101559.54;109483;1251;58793;-60
2024/02/26 05:21:40;;;;;;;;;;;;;;;-3.24;100.00;101554.37;109357;1252;58609;-52
2024/02/26 05:24:08;;;;;;;;;;;;;;;-3.15;100.00;101559.48;109505;1252;73950;-53
2024/02/26 05:26:35;;;;;;;;;;;;;;;-3.06;100.00;101552.46;109516;1251;67435;-53
2024/02/26 05:29:03;;;;;;;;;;;;;;;-2.93;100.00;101552.27;109448;1252;72651;-55
2024/02/26 05:31:30;;;;;;;;;;;;;;;-2.83;100.00;101553.52;109392;1253;58854;-55
2024/02/26 05:33:58;;;;;;;;;;;;;;;-2.73;100.00;101554.09;109469;1252;58895;-55
2024/02/26 05:36:28;;;;;;;;;;;;;;;-2.65;100.00;101547.83;109475;1256;73883;-54
2024/02/26 05:38:57;;;;;;;;;;;;;;;-2.60;100.00;101545.41;109479;1253;67021;-54
2024/02/26 05:41:26;;;;;;;;;;;;;;;-2.56;100.00;101537.90;109405;1253;72714;-55
2024/02/26 05:43:53;;;;;;;;;;;;;;;-2.49;100.00;101532.84;109457;1253;59587;-53
2024/02/26 05:46:21;;;;;;;;;;;;;;;-2.38;100.00;101525.72;109426;1253;59908;-53
2024/02/26 05:48:52;;;;;;;;;;;;;;;-2.26;100.00;101527.39;109468;1253;72831;-56
2024/02/26 05:51:20;;;;;;;;;;;;;;;-2.15;100.00;101523.33;109386;1253;65742;-57
2024/02/26 05:53:53;;;;;;;;;;;;;;;-2.01;100.00;101524.72;109391;1253;73767;-54
2024/02/26 05:56:22;;;;;;;;;;;;;;;-1.85;100.00;101514.44;109389;1253;58579;-55
2024/02/26 05:58:49;;;;;;;;;;;;;;;-1.69;100.00;101511.44;109469;1253;58191;-54
2024/02/26 06:01:17;;;;;;;;;;;;;;;-1.49;100.00;101516.77;109374;1253;74584;-56
2024/02/26 06:03:45;;;;;;;;;;;;;;;-1.09;100.00;101508.66;109457;1253;66698;-54
2024/02/26 06:06:14;;;;;;;;;;;;;;;-0.66;100.00;101513.61;109435;1253;72396;-56
2024/02/26 06:08:43;;;;;;;;;;;;;;;-0.28;100.00;101509.06;109385;1252;59352;-54
2024/02/26 06:11:11;;;;;;;;;;;;;;;-0.02;100.00;101505.45;109404;1253;58594;-52
2024/02/26 06:13:38;;;;;;;;;;;;;;;0.23;100.00;101500.27;109392;1253;74002;-53
2024/02/26 06:16:07;;;;;;;;;;;;;;;0.54;100.00;101491.70;109417;1253;66947;-53
2024/02/26 06:18:35;;;;;;;;;;;;;;;0.86;100.00;101496.34;109431;1253;75013;-53
2024/02/26 06:21:03;;;;;;;;;;;;;;;1.06;100.00;101494.52;109400;1252;59352;-52
2024/02/26 06:23:30;;;;;;;;;;;;;;;1.19;100.00;101500.92;109378;1253;58627;-55
2024/02/26 06:25:58;;;;;;;;;;;;;;;1.35;100.00;101492.71;109406;1253;76544;-52
2024/02/26 06:28:25;;;;;;;;;;;;;;;1.56;100.00;101491.98;109380;1253;69224;-54
2024/02/26 06:30:53;;;;;;;;;;;;;;;1.68;100.00;101490.02;109372;1253;72389;-52
2024/02/26 06:33:21;;;;;;;;;;;;;;;1.87;100.00;101490.40;109407;1253;59470;-53
2024/02/26 06:35:49;;;;;;;;;;;;;;;2.11;100.00;101488.54;109387;1252;60881;-58
2024/02/26 06:38:17;;;;;;;;;;;;;;;2.38;100.00;101488.17;109420;1252;73989;-53
2024/02/26 06:40:45;;;;;;;;;;;;;;;2.49;100.00;101482.82;109427;1253;66030;-52
2024/02/26 06:43:13;;;;;;;;;;;;;;;2.63;100.00;101487.52;109402;1253;72747;-52
2024/02/26 06:45:40;;;;;;;;;;;;;;;2.71;100.00;101479.98;109431;1253;62833;-54
2024/02/26 06:48:08;;;;;;;;;;;;;;;2.74;100.00;101487.02;109367;1253;58611;-58
2024/02/26 06:50:35;;;;;;;;;;;;;;;2.84;100.00;101486.15;109448;1252;73925;-53
2024/02/26 06:53:03;;;;;;;;;;;;;;;2.89;99.28;101484.42;109440;1252;69629;-53
2024/02/26 06:55:31;;;;;;;;;;;;;;;2.89;96.86;101477.55;109411;1252;73734;-52
2024/02/26 06:57:58;;;;;;;;;;;;;;;2.95;95.10;101484.71;109406;1252;59382;-58
2024/02/26 07:00:26;;;;;;;;;;;;;;;3.03;93.12;101496.53;109433;1252;58937;-53
2024/02/26 07:02:54;;;;;;;;;;;;;;;3.04;89.04;101482.77;109435;1253;76595;-55
2024/02/26 07:05:21;;;;;;;;;;;;;;;3.01;88.08;101484.34;109450;1253;69176;-53
2024/02/26 07:07:49;;;;;;;;;;;;;;;3.08;85.73;101486.08;109432;1253;74765;-54
2024/02/26 07:10:17;;;;;;;;;;;;;;;3.09;83.07;101486.35;109369;1253;61638;-53
2024/02/26 07:12:44;;;;;;;;;;;;;;;3.13;83.85;101490.22;109275;1253;213656;-53
2024/02/26 07:15:12;;;;;;;;;;;;;;;3.22;83.70;101489.08;109408;1252;74670;-52
2024/02/26 07:17:47;;;;;;;;;;;;;;;3.28;81.85;101490.92;109417;1253;68842;-53
2024/02/26 07:20:15;;;;;;;;;;;;;;;3.36;80.87;101492.52;109396;1253;74836;-57
2024/02/26 07:22:44;;;;;;;;;;;;;;;3.41;77.57;101489.85;109431;1253;62012;-55
2024/02/26 07:25:13;;;;;;;;;;;;;;;3.41;77.02;101487.23;109471;1252;61801;-54
2024/02/26 07:27:41;;;;;;;;;;;;;;;3.50;76.62;101493.14;109429;1253;77301;-54
2024/02/26 07:30:09;;;;;;;;;;;;;;;3.59;75.23;101488.23;109414;1252;69273;-53
2024/02/26 07:32:36;;;;;;;;;;;;;;;3.72;74.69;101484.41;109350;1253;72760;-54
2024/02/26 07:35:05;;;;;;;;;;;;;;;3.87;72.53;101487.62;109425;1253;60352;-54
2024/02/26 07:37:33;;;;;;;;;;;;;;;3.91;68.33;101488.17;109386;1253;62249;-54
2024/02/26 07:40:00;;;;;;;;;;;;;;;3.87;67.29;101483.30;109422;1252;72671;-53
2024/02/26 07:42:28;;;;;;;;;;;;;;;3.93;66.74;101482.77;109384;1253;68276;-59
2024/02/26 07:44:55;;;;;;;;;;;;;;;3.95;65.29;101486.38;109367;1253;75737;-53
2024/02/26 07:47:23;;;;;;;;;;;;;;;3.94;64.59;101477.53;109406;1254;61757;-53
2024/02/26 07:49:51;;;;;;;;;;;;;;;3.95;64.95;101477.07;109400;1253;59793;-53
2024/02/26 07:52:18;;;;;;;;;;;;;;;4.10;65.16;101481.48;109433;1253;74966;-53
2024/02/26 07:54:46;;;;;;;;;;;;;;;4.28;63.76;101472.09;109332;1253;67500;-56
2024/02/26 07:57:16;;;;;;;;;;;;;;;4.47;64.93;101477.72;109313;1250;75230;-53
2024/02/26 07:59:44;;;;;;;;;;;;;;;4.78;63.26;101471.16;109395;1252;59594;-53
2024/02/26 08:02:12;;;;;;;;;;;;;;;4.99;59.95;101476.96;109434;1252;60975;-54
2024/02/26 08:04:40;;;;;;;;;;;;;;;5.11;58.93;101469.49;109424;1252;74768;-58
2024/02/26 08:07:07;;;;;;;;;;;;;;;5.41;58.78;101462.00;109456;1251;69307;-53
2024/02/26 08:09:35;;;;;;;;;;;;;;;5.84;58.76;101463.77;109414;1252;74860;-54
2024/02/26 08:12:03;;;;;;;;;;;;;;;6.20;55.49;101463.48;109454;1253;60322;-53
2024/02/26 08:14:32;;;;;;;;;;;;;;;6.28;53.00;101463.87;109489;1252;61528;-54
2024/02/26 08:17:00;;;;;;;;;;;;;;;6.23;51.56;101466.87;109342;1253;75873;-55
2024/02/26 08:19:27;;;;;;;;;;;;;;;6.10;51.16;101461.39;109482;1252;68963;-55
2024/02/26 08:21:55;;;;;;;;;;;;;;;6.09;51.66;101465.97;109391;1252;74949;-54
2024/02/26 08:24:23;;;;;;;;;;;;;;;6.11;50.58;101465.77;109436;1253;61393;-54
2024/02/26 08:26:50;;;;;;;;;;;;;;;6.12;50.58;101464.52;109455;1252;61620;-59
2024/02/26 08:29:18;;;;;;;;;;;;;;;6.24;50.73;101467.45;109402;1255;75269;-54
2024/02/26 08:31:46;;;;;;;;;;;;;;;6.32;49.94;101457.33;109354;1252;68722;-55
2024/02/26 08:34:13;;;;;;;;;;;;;;;6.39;49.84;101461.80;109435;1253;75312;-55
2024/02/26 08:36:43;;;;;;;;;;;;;;;6.57;49.49;101457.72;109443;1253;60331;-57
2024/02/26 08:39:10;;;;;;;;;;;;;;;6.74;49.28;101461.14;109448;1252;61904;-60
2024/02/26 08:41:38;;;;;;;;;;;;;;;6.91;48.16;101455.91;109445;1253;74075;-56
2024/02/26 08:44:05;;;;;;;;;;;;;;;6.93;47.30;101451.58;109483;1251;68863;-54
2024/02/26 08:46:33;;;;;;;;;;;;;;;6.96;47.21;101446.81;109439;1253;73539;-54
2024/02/26 08:49:01;;;;;;;;;;;;;;;6.98;46.64;101442.33;109458;1253;60614;-60
2024/02/26 08:51:29;;;;;;;;;;;;;;;6.97;46.54;101434.80;109396;1251;61904;-58
2024/02/26 08:53:56;;;;;;;;;;;;;;;6.94;46.04;101429.73;109479;1251;74832;-54
2024/02/26 08:56:24;;;;;;;;;;;;;;;6.90;45.87;101433.86;109422;1252;68931;-54
2024/02/26 08:58:53;;;;;;;;;;;;;;;6.83;45.38;101436.02;109420;1251;73672;-54
2024/02/26 09:01:23;;;;;;;;;;;;;;;6.66;45.29;101425.89;109339;1252;59650;-58
2024/02/26 09:03:51;;;;;;;;;;;;;;;6.56;45.47;101420.77;109405;1253;61611;-55
2024/02/26 09:06:19;;;;;;;;;;;;;;;6.58;46.06;101413.73;109427;1253;75861;-56
2024/02/26 09:08:46;;;;;;;;;;;;;;;6.73;45.88;101413.15;109496;1251;68047;-55
2024/02/26 09:11:14;;;;;;;;;;;;;;;6.80;45.69;101411.50;109456;1253;74854;-58
2024/02/26 09:13:42;;;;;;;;;;;;;;;6.87;45.38;101403.91;109489;1251;61968;-53
2024/02/26 09:16:09;;;;;;;;;;;;;;;6.87;45.10;101414.20;109474;1251;63026;-57
2024/02/26 09:18:37;;;;;;;;;;;;;;;6.86;44.99;101406.52;109429;1251;75781;-58
2024/02/26 09:21:06;;;;;;;;;;;;;;;6.91;45.05;101407.81;109395;1253;68468;-56
2024/02/26 09:23:34;;;;;;;;;;;;;;;6.96;44.62;101400.80;109489;1253;76099;-53
2024/02/26 09:26:02;;;;;;;;;;;;;;;7.07;44.31;101394.52;109475;1253;61838;-56
2024/02/26 09:28:34;;;;;;;;;;;;;;;7.16;44.40;101400.16;109490;1253;61924;-57
2024/02/26 09:31:02;;;;;;;;;;;;;;;7.20;44.25;101392.20;109428;1252;75946;-59
2024/02/26 09:33:30;;;;;;;;;;;;;;;7.24;44.09;101389.42;109487;1251;70055;-54
2024/02/26 09:35:57;;;;;;;;;;;;;;;7.27;43.92;101389.90;109489;1252;74761;-56
2024/02/26 09:38:25;;;;;;;;;;;;;;;7.28;43.65;101390.98;109469;1253;61409;-57
2024/02/26 09:40:53;;;;;;;;;;;;;;;7.29;43.55;101390.36;109457;1252;61942;-56
2024/02/26 09:43:23;;;;;;;;;;;;;;;7.35;43.38;101385.40;109424;1251;75885;-54
2024/02/26 09:45:52;;;;;;;;;;;;;;;7.39;43.46;101376.21;109480;1252;69115;-55
2024/02/26 09:48:20;;;;;;;;;;;;;;;7.56;43.76;101378.20;109432;1251;74005;-54
2024/02/26 09:50:48;;;;;;;;;;;;;;;7.71;42.95;101370.73;109453;1253;59407;-54
2024/02/26 09:53:15;;;;;;;;;;;;;;;7.72;42.57;101374.80;109420;1256;61946;-53
2024/02/26 09:55:43;;;;;;;;;;;;;;;7.73;42.44;101366.27;109428;1253;75859;-54
2024/02/26 09:58:13;;;;;;;;;;;;;;;7.82;42.44;101363.52;109504;1252;67981;-53
2024/02/26 10:00:42;;;;;;;;;;;;;;;7.88;41.88;101360.10;109411;1251;73407;-54
2024/02/26 10:03:09;;;;;;;;;;;;;;;7.83;41.98;101357.08;109283;1251;61360;-53
2024/02/26 10:05:37;;;;;;;;;;;;;;;7.89;42.56;101355.86;109442;1253;62427;-56
2024/02/26 10:08:05;;;;;;;;;;;;;;;8.01;42.30;101347.59;109476;1251;75793;-53
2024/02/26 10:10:32;;;;;;;;;;;;;;;8.08;42.20;101341.67;109352;1252;68061;-55
2024/02/26 10:13:01;;;;;;;;;;;;;;;8.22;42.06;101337.27;109403;1256;75354;-56
2024/02/26 10:15:29;;;;;;;;;;;;;;;8.38;41.46;101332.27;109466;1251;61806;-53
2024/02/26 10:17:56;;;;;;;;;;;;;;;8.45;40.59;101332.34;109469;1251;61055;-53
2024/02/26 10:20:26;;;;;;;;;;;;;;;8.47;40.75;101323.33;109475;1254;76550;-53
2024/02/26 10:22:53;;;;;;;;;;;;;;;8.54;40.64;101317.85;109479;1251;68884;-53
2024/02/26 10:25:21;;;;;;;;;;;;;;;8.62;40.58;101312.62;109289;1251;73747;-53
2024/02/26 10:27:49;;;;;;;;;;;;;;;8.72;40.37;101316.80;109479;1253;61348;-53
2024/02/26 10:30:20;;;;;;;;;;;;;;;8.78;39.18;101312.16;109473;1251;60836;-55
2024/02/26 10:32:49;;;;;;;;;;;;;;;8.81;37.25;101305.44;109517;1251;77334;-55
2024/02/26 10:35:20;;;;;;;;;;;;;;;8.81;36.68;101305.14;109455;1251;67861;-57
2024/02/26 10:37:52;;;;;;;;;;;;;;;8.85;37.34;101302.27;109456;1257;73838;-55
2024/02/26 10:40:20;;;;;;;;;;;;;;;8.91;37.73;101300.09;109317;1253;61903;-55
2024/02/26 10:42:48;;;;;;;;;;;;;;;9.00;37.23;101302.41;109556;1251;62082;-53
2024/02/26 10:45:15;;;;;;;;;;;;;;;9.09;35.39;101294.98;109429;1251;76003;-54
2024/02/26 10:47:43;;;;;;;;;;;;;;;9.06;36.38;101305.98;109453;1255;67757;-56
2024/02/26 10:50:11;;;;;;;;;;;;;;;9.10;36.20;101299.33;109451;1253;74838;-54
2024/02/26 10:52:39;;;;;;;;;;;;;;;9.09;34.81;101306.02;109327;1253;61729;-54
2024/02/26 10:55:06;;;;;;;;;;;;;;;9.05;34.77;101297.08;109472;1251;60909;-54
2024/02/26 10:57:37;;;;;;;;;;;;;;;9.08;35.10;101298.56;109440;1251;77606;-54
2024/02/26 11:00:10;;;;;;;;;;;;;;;9.15;36.03;101299.77;109460;1252;67907;-54
2024/02/26 11:02:38;;;;;;;;;;;;;;;9.17;36.72;101302.28;109465;1254;73793;-53
2024/02/26 11:05:06;;;;;;;;;;;;;;;9.11;36.55;101299.05;109334;1254;60825;-53
2024/02/26 11:07:37;;;;;;;;;;;;;;;9.07;35.36;101295.34;109475;1254;62240;-54
2024/02/26 11:10:05;;;;;;;;;;;;;;;9.14;34.63;101294.98;109470;1256;75920;-55
2024/02/26 11:12:35;;;;;;;;;;;;;;;9.30;34.72;101290.29;109378;1252;70006;-55
2024/02/26 11:15:03;;;;;;;;;;;;;;;9.49;35.38;101291.27;109230;1254;74757;-55
2024/02/26 11:17:31;;;;;;;;;;;;;;;9.65;34.04;101289.83;109342;1252;62211;-55
2024/02/26 11:19:59;;;;;;;;;;;;;;;9.68;32.93;101275.81;109312;1254;61881;-54
2024/02/26 11:22:27;;;;;;;;;;;;;;;9.78;33.26;101268.40;109391;1254;74952;-53
2024/02/26 11:24:57;;;;;;;;;;;;;;;9.92;33.47;101272.66;109386;1252;69790;-55
2024/02/26 11:27:26;;;;;;;;;;;;;;;9.98;34.08;101272.27;109376;1253;75579;-55
2024/02/26 11:29:53;;;;;;;;;;;;;;;9.98;34.72;101280.27;109323;1254;60574;-55
2024/02/26 11:32:21;;;;;;;;;;;;;;;10.02;35.08;101272.49;109387;1253;61915;-55
2024/02/26 11:34:49;;;;;;;;;;;;;;;9.95;34.88;101279.35;109417;1253;76057;-54
2024/02/26 11:37:17;;;;;;;;;;;;;;;9.81;34.92;101273.47;109340;1252;67845;-55
2024/02/26 11:39:45;;;;;;;;;;;;;;;9.73;35.50;101276.05;109318;1251;73794;-56
2024/02/26 11:42:16;;;;;;;;;;;;;;;9.65;35.21;101277.33;109427;1251;60158;-57
2024/02/26 11:44:44;;;;;;;;;;;;;;;9.51;35.38;101274.58;109452;1251;60714;-56
2024/02/26 11:47:12;;;;;;;;;;;;;;;9.33;35.66;101274.55;109410;1253;75028;-55
2024/02/26 11:49:40;;;;;;;;;;;;;;;9.18;35.71;101279.13;109431;1251;67581;-54
2024/02/26 11:52:08;;;;;;;;;;;;;;;9.01;36.27;101270.41;109406;1252;73788;-54
2024/02/26 11:54:39;;;;;;;;;;;;;;;8.88;36.45;101270.96;109447;1251;60324;-56
2024/02/26 11:57:27;;;;;;;;;;;;;;;8.80;36.85;101271.50;109494;1251;61132;-55
2024/02/26 11:59:56;;;;;;;;;;;;;;;8.74;36.89;101276.05;109402;1254;77299;-54
2024/02/26 12:03:00;;;;;;;;;;;;;;;8.65;37.15;101271.10;109501;1254;68029;-54
2024/02/26 12:05:32;;;;;;;;;;;;;;;8.51;37.59;101271.80;109168;1254;73606;-55
2024/02/26 12:08:00;;;;;;;;;;;;;;;8.44;37.59;101280.15;109366;1257;61435;-57
2024/02/26 12:10:34;;;;;;;;;;;;;;;8.33;37.54;101274.02;109394;1254;60783;-54
2024/02/26 12:13:08;;;;;;;;;;;;;;;8.25;37.67;101286.90;109410;1251;75930;-62
2024/02/26 12:15:37;;;;;;;;;;;;;;;8.22;37.85;101283.55;109532;1251;68241;-57
2024/02/26 12:18:05;;;;;;;;;;;;;;;8.21;38.28;101283.16;109367;1253;74444;-53
2024/02/26 12:20:33;;;;;;;;;;;;;;;8.28;38.32;101283.16;109407;1255;60541;-55
2024/02/26 12:23:00;;;;;;;;;;;;;;;8.38;38.31;101282.11;109490;1254;63177;-60
2024/02/26 12:25:29;;;;;;;;;;;;;;;8.43;38.35;101280.23;109369;1254;75882;-56
2024/02/26 12:27:56;;;;;;;;;;;;;;;8.51;38.37;101277.77;109465;1254;68885;-56
2024/02/26 12:30:25;;;;;;;;;;;;;;;8.55;38.18;101282.77;109459;1253;74744;-57